Time;durP1;ratioP1;P1;durP2;ratioP2;P2;SDS_P1;SDS_P2;PMS_P1;PMS_P2;Temp;Humidity;BMP_temperature;BMP_pressure;BME280_temperature;BME280_humidity;BME280_pressure;Samples;Min_cycle;Max_cycle;Signal;HPM_P1;HPM_P2
2024/03/14 00:07:14;;;;;;;;;;;11.20;99.90;;;;;;6697041;88;20064;-74
2024/03/14 00:17:16;;;;;;;;;;;11.00;99.90;;;;;;6704072;88;20065;-77
2024/03/14 00:27:19;;;;;;;;;;;11.10;99.90;;;;;;6709629;88;20060;-76
2024/03/14 00:37:19;;;;;;;;;;;11.00;99.90;;;;;;6698157;88;20100;-74
2024/03/14 00:47:20;;;;;;;;;;;11.00;99.90;;;;;;6702507;88;20080;-75
2024/03/14 00:57:21;;;;;;;;;;;10.80;99.90;;;;;;6691984;88;20107;-75
2024/03/14 01:07:23;;;;;;;;;;;10.80;99.90;;;;;;6694106;88;20105;-74
2024/03/14 01:17:23;;;;;;;;;;;10.70;99.90;;;;;;6692380;88;20582;-75
2024/03/14 01:27:25;;;;;;;;;;;10.60;99.90;;;;;;6695130;88;20161;-75
2024/03/14 01:37:25;;;;;;;;;;;10.40;99.90;;;;;;6698342;88;20523;-74
2024/03/14 01:47:26;;;;;;;;;;;10.30;99.90;;;;;;6697086;88;20128;-74
2024/03/14 01:57:27;;;;;;;;;;;10.70;99.90;;;;;;6699415;88;20531;-76
2024/03/14 02:07:34;;;;;;;;;;;10.80;99.90;;;;;;6707921;88;20150;-75
2024/03/14 02:17:35;;;;;;;;;;;10.20;99.90;;;;;;6697404;88;20188;-74
2024/03/14 02:27:36;;;;;;;;;;;10.10;99.90;;;;;;6696476;88;20083;-74
2024/03/14 02:37:36;;;;;;;;;;;9.60;99.90;;;;;;6695852;88;20163;-75
2024/03/14 02:47:37;;;;;;;;;;;9.40;99.90;;;;;;6698063;88;20113;-75
2024/03/14 02:57:38;;;;;;;;;;;9.20;99.90;;;;;;6695904;88;20101;-75
2024/03/14 03:07:38;;;;;;;;;;;9.20;99.90;;;;;;6694454;88;20524;-75
2024/03/14 03:17:39;;;;;;;;;;;9.10;99.90;;;;;;6699331;88;20206;-75
2024/03/14 03:27:42;;;;;;;;;;;8.90;99.90;;;;;;6697410;88;20217;-76
2024/03/14 03:37:43;;;;;;;;;;;8.80;99.90;;;;;;6699980;88;20087;-75
2024/03/14 03:47:45;;;;;;;;;;;8.70;99.90;;;;;;6702005;88;20596;-74
2024/03/14 03:57:46;;;;;;;;;;;8.60;99.90;;;;;;6708871;77;20240;-78
2024/03/14 04:07:49;;;;;;;;;;;8.40;99.90;;;;;;6722895;88;20632;-77
2024/03/14 04:17:54;;;;;;;;;;;8.30;99.90;;;;;;6716534;88;20106;-77
2024/03/14 04:27:56;;;;;;;;;;;8.30;99.90;;;;;;6716490;88;20062;-77
2024/03/14 04:37:57;;;;;;;;;;;8.30;99.90;;;;;;6715984;88;20054;-77
2024/03/14 04:47:58;;;;;;;;;;;8.40;99.90;;;;;;6718984;88;20080;-77
2024/03/14 04:57:58;;;;;;;;;;;8.20;99.90;;;;;;6715219;88;20056;-77
2024/03/14 05:07:59;;;;;;;;;;;8.30;99.90;;;;;;6717548;88;20073;-79
2024/03/14 05:18:02;;;;;;;;;;;8.40;99.90;;;;;;6718904;88;20081;-78
2024/03/14 05:28:03;;;;;;;;;;;8.40;99.90;;;;;;6718726;88;20548;-77
2024/03/14 05:38:04;;;;;;;;;;;8.50;99.90;;;;;;6717979;88;20067;-78
2024/03/14 05:48:13;;;;;;;;;;;8.30;99.90;;;;;;6717599;88;20109;-78
2024/03/14 05:58:14;;;;;;;;;;;8.30;99.90;;;;;;6701145;88;20654;-78
2024/03/14 06:08:14;;;;;;;;;;;8.30;99.90;;;;;;6717886;88;20203;-78
2024/03/14 06:18:15;;;;;;;;;;;8.20;99.90;;;;;;6719732;88;20455;-80
2024/03/14 06:28:15;;;;;;;;;;;8.20;99.90;;;;;;6725266;88;20086;-79
2024/03/14 06:38:16;;;;;;;;;;;8.30;99.90;;;;;;6733690;88;20550;-78
2024/03/14 06:48:16;;;;;;;;;;;8.40;99.90;;;;;;6725815;88;20050;-80
2024/03/14 06:58:17;;;;;;;;;;;8.60;99.90;;;;;;6718756;88;20058;-78
2024/03/14 07:08:17;;;;;;;;;;;8.70;99.90;;;;;;6727814;88;20066;-79
2024/03/14 07:18:17;;;;;;;;;;;8.70;99.90;;;;;;6716428;88;20097;-77
2024/03/14 07:28:19;;;;;;;;;;;9.10;99.90;;;;;;6728427;88;20049;-78
2024/03/14 07:38:23;;;;;;;;;;;9.40;99.90;;;;;;6705161;88;20081;-76
2024/03/14 07:48:23;;;;;;;;;;;10.00;99.90;;;;;;6708558;88;20054;-77
2024/03/14 07:58:24;;;;;;;;;;;10.40;99.90;;;;;;6718605;88;20073;-79
2024/03/14 08:08:24;;;;;;;;;;;10.50;99.90;;;;;;6714734;88;20088;-77
2024/03/14 08:18:25;;;;;;;;;;;12.30;99.90;;;;;;6715881;88;20054;-77
2024/03/14 08:28:26;;;;;;;;;;;14.90;99.90;;;;;;6715810;88;20059;-78
2024/03/14 08:38:26;;;;;;;;;;;13.40;99.90;;;;;;6717347;88;20120;-78
2024/03/14 08:48:27;;;;;;;;;;;13.60;99.90;;;;;;6733846;88;20464;-77
2024/03/14 08:58:29;;;;;;;;;;;12.90;99.90;;;;;;6734626;88;20132;-77
2024/03/14 09:08:30;;;;;;;;;;;13.50;99.90;;;;;;6698407;88;20220;-78
2024/03/14 09:18:31;;;;;;;;;;;13.70;99.90;;;;;;6697317;88;20059;-77
2024/03/14 09:28:32;;;;;;;;;;;14.10;99.90;;;;;;6724151;88;20062;-77
2024/03/14 09:38:33;;;;;;;;;;;14.20;99.90;;;;;;6742456;88;20774;-78
2024/03/14 09:48:35;;;;;;;;;;;14.20;99.90;;;;;;6731470;88;20544;-78
2024/03/14 09:58:37;;;;;;;;;;;15.70;99.90;;;;;;6723080;77;20229;-77
2024/03/14 10:08:45;;;;;;;;;;;14.70;99.90;;;;;;6727175;88;20169;-78
2024/03/14 10:18:46;;;;;;;;;;;14.40;99.90;;;;;;6724009;88;20124;-78
2024/03/14 10:28:46;;;;;;;;;;;14.30;99.90;;;;;;6737285;88;20106;-77
2024/03/14 10:38:49;;;;;;;;;;;14.90;99.90;;;;;;6733405;88;20100;-76
2024/03/14 10:48:50;;;;;;;;;;;14.70;99.90;;;;;;6729437;88;20068;-78
2024/03/14 10:58:54;;;;;;;;;;;15.30;99.90;;;;;;6730959;88;20063;-77
2024/03/14 11:08:57;;;;;;;;;;;15.00;99.90;;;;;;6733272;88;20094;-76
2024/03/14 11:18:59;;;;;;;;;;;14.90;99.90;;;;;;6724604;88;20186;-75
2024/03/14 11:29:03;;;;;;;;;;;15.50;99.90;;;;;;6718647;88;20070;-75
2024/03/14 11:39:14;;;;;;;;;;;14.80;99.90;;;;;;6714221;88;20047;-77
2024/03/14 11:49:16;;;;;;;;;;;15.60;99.90;;;;;;6717975;88;20479;-77
2024/03/14 11:59:20;;;;;;;;;;;16.20;99.90;;;;;;6720298;88;20157;-77
2024/03/14 12:09:25;;;;;;;;;;;17.80;99.90;;;;;;6723343;88;20055;-78
2024/03/14 12:19:25;;;;;;;;;;;18.00;99.90;;;;;;6723027;88;20055;-78
2024/03/14 12:29:26;;;;;;;;;;;18.60;99.90;;;;;;6720395;88;20079;-78
2024/03/14 12:39:28;;;;;;;;;;;19.00;99.90;;;;;;6725405;88;20083;-78
2024/03/14 12:49:29;;;;;;;;;;;19.80;99.90;;;;;;6728587;88;20059;-77
2024/03/14 12:59:30;;;;;;;;;;;19.80;99.90;;;;;;6726074;88;20118;-77
2024/03/14 13:09:31;;;;;;;;;;;20.50;99.90;;;;;;6719807;88;20047;-78
2024/03/14 13:19:32;;;;;;;;;;;20.90;99.90;;;;;;6725246;88;20063;-79
2024/03/14 13:29:33;;;;;;;;;;;21.00;99.90;;;;;;6728171;88;20201;-78
2024/03/14 13:39:38;;;;;;;;;;;21.40;99.90;;;;;;6714588;88;20105;-78
2024/03/14 13:49:38;;;;;;;;;;;20.30;99.90;;;;;;6711649;88;20063;-78
2024/03/14 13:59:46;;;;;;;;;;;20.30;99.90;;;;;;6727964;88;20216;-79
2024/03/14 14:09:49;;;;;;;;;;;21.60;99.90;;;;;;6718658;88;20093;-79
2024/03/14 14:19:49;;;;;;;;;;;22.70;96.00;;;;;;6722384;88;20252;-79
2024/03/14 14:29:50;;;;;;;;;;;22.60;96.00;;;;;;6716289;88;20167;-79
2024/03/14 14:39:50;;;;;;;;;;;21.40;96.50;;;;;;6721369;88;20082;-79
2024/03/14 14:49:51;;;;;;;;;;;20.90;99.60;;;;;;6720451;88;20511;-79
2024/03/14 14:59:52;;;;;;;;;;;21.60;97.70;;;;;;6726984;88;20063;-77
2024/03/14 15:09:52;;;;;;;;;;;20.60;98.10;;;;;;6727750;88;20072;-78
2024/03/14 15:19:53;;;;;;;;;;;19.50;99.90;;;;;;6726698;88;20502;-78
2024/03/14 15:29:57;;;;;;;;;;;19.20;99.90;;;;;;6729876;88;20050;-78
2024/03/14 15:39:57;;;;;;;;;;;19.30;99.90;;;;;;6738318;88;20078;-78
2024/03/14 15:49:58;;;;;;;;;;;19.00;99.90;;;;;;6741038;88;20105;-77
2024/03/14 15:59:58;;;;;;;;;;;18.90;99.90;;;;;;6727012;88;20444;-76
2024/03/14 16:09:59;;;;;;;;;;;19.00;99.90;;;;;;6726859;88;20186;-76
2024/03/14 16:20:17;;;;;;;;;;;18.40;99.90;;;;;;6724172;88;20501;-77
2024/03/14 16:30:19;;;;;;;;;;;18.20;99.90;;;;;;6723725;88;20173;-78
2024/03/14 16:40:20;;;;;;;;;;;17.90;99.90;;;;;;6722540;88;20501;-76
2024/03/14 16:50:20;;;;;;;;;;;17.70;99.90;;;;;;6721066;88;20066;-78
2024/03/14 17:00:29;;;;;;;;;;;17.60;99.90;;;;;;6724504;88;20107;-77
2024/03/14 17:10:30;;;;;;;;;;;17.30;99.90;;;;;;6727581;88;20474;-77
2024/03/14 17:20:30;;;;;;;;;;;17.00;99.90;;;;;;6733259;88;20079;-77
2024/03/14 17:30:32;;;;;;;;;;;16.80;99.90;;;;;;6729089;88;20154;-77
2024/03/14 17:40:32;;;;;;;;;;;16.60;99.90;;;;;;6722828;88;20544;-77
2024/03/14 17:50:34;;;;;;;;;;;16.30;99.90;;;;;;6724879;88;20104;-79
2024/03/14 18:00:36;;;;;;;;;;;16.10;99.90;;;;;;6724014;88;20198;-77
2024/03/14 18:10:36;;;;;;;;;;;16.00;99.90;;;;;;6723495;88;20060;-78
2024/03/14 18:20:37;;;;;;;;;;;15.80;99.90;;;;;;6723951;88;20526;-78
2024/03/14 18:30:38;;;;;;;;;;;15.70;99.90;;;;;;6718882;88;20072;-78
2024/03/14 18:40:40;;;;;;;;;;;15.50;99.90;;;;;;6719822;88;20112;-78
2024/03/14 18:50:41;;;;;;;;;;;15.40;99.90;;;;;;6714205;88;20538;-78
2024/03/14 19:00:43;;;;;;;;;;;15.20;99.90;;;;;;6722474;88;20554;-77
2024/03/14 19:10:44;;;;;;;;;;;15.10;99.90;;;;;;6726950;88;20075;-76
2024/03/14 19:20:44;;;;;;;;;;;14.80;99.90;;;;;;6719797;88;20126;-78
2024/03/14 19:30:46;;;;;;;;;;;14.60;99.90;;;;;;6725484;88;20047;-79
2024/03/14 19:47:33;;;;;;;;;;;14.40;99.90;;;;;;6778721;86;20643;-79
2024/03/14 19:57:36;;;;;;;;;;;14.20;99.90;;;;;;6756766;87;20076;-79
2024/03/14 20:07:37;;;;;;;;;;;14.00;99.90;;;;;;6759269;87;20187;-78
2024/03/14 20:17:37;;;;;;;;;;;13.90;99.90;;;;;;6761860;87;20111;-77
2024/03/14 20:27:39;;;;;;;;;;;13.70;99.90;;;;;;6753081;87;20091;-79
2024/03/14 20:37:40;;;;;;;;;;;13.60;99.90;;;;;;6761271;87;20514;-77
2024/03/14 20:47:41;;;;;;;;;;;13.50;99.90;;;;;;6763840;87;20075;-77
2024/03/14 20:57:49;;;;;;;;;;;13.40;99.90;;;;;;6748286;87;22210;-77
2024/03/14 21:07:50;;;;;;;;;;;13.30;99.90;;;;;;6746491;88;20057;-77
2024/03/14 21:17:50;;;;;;;;;;;13.20;99.90;;;;;;6745495;87;20068;-77
2024/03/14 21:27:51;;;;;;;;;;;13.10;99.90;;;;;;6742568;87;20097;-77
2024/03/14 21:37:52;;;;;;;;;;;13.10;99.90;;;;;;6751999;87;20136;-76
2024/03/14 21:47:53;;;;;;;;;;;13.10;99.90;;;;;;6747036;88;20084;-77
2024/03/14 21:57:54;;;;;;;;;;;13.20;99.90;;;;;;6756329;87;20097;-79
2024/03/14 22:07:54;;;;;;;;;;;13.20;99.90;;;;;;6739357;76;20186;-77
2024/03/14 22:17:56;;;;;;;;;;;13.10;99.90;;;;;;6710499;88;20143;-75
2024/03/14 22:27:56;;;;;;;;;;;13.00;99.90;;;;;;6707825;88;20072;-76
2024/03/14 22:37:57;;;;;;;;;;;12.90;99.90;;;;;;6710486;88;20051;-75
2024/03/14 22:47:57;;;;;;;;;;;12.90;99.90;;;;;;6717216;88;20080;-75
2024/03/14 22:57:58;;;;;;;;;;;12.80;99.90;;;;;;6718451;88;20076;-75
2024/03/14 23:07:58;;;;;;;;;;;12.60;99.90;;;;;;6709301;88;20496;-74
2024/03/14 23:17:59;;;;;;;;;;;12.50;99.90;;;;;;6710922;88;20052;-75
2024/03/14 23:27:59;;;;;;;;;;;12.60;99.90;;;;;;6711294;88;20071;-74
2024/03/14 23:38:00;;;;;;;;;;;12.60;99.90;;;;;;6710863;88;20575;-75
2024/03/14 23:48:01;;;;;;;;;;;12.40;99.90;;;;;;6709806;88;20537;-74
2024/03/14 23:58:03;;;;;;;;;;;12.40;99.90;;;;;;6721024;88;20197;-74
